Purdue University Airport
KLAF : rendu visible

Aérodrome :











RETROUVEZ-NOUS SUR...

 
LOGIN :

S'inscrire | Disclaimer

   EN    FR    IT 

 









Légende :    VFR   VFR Marginal   IFR   IFR Intensif   IFR Très Intensif
Visi : 
Plafond : 
>= 8 km
>= 3000ft
5 à 8 km
1000 à 3000 ft
1500m à 5 km
500 à 1000 ft
800 à 1500m
200 à 500 ft
< 800m
< 200 ft
Symboles :   Orages  Brouillard  Fortes neiges  Fortes précipitations  Vent > 20 kt






- Altitude de l'aérodrome : 606 ft
- Code IATA : LAF


KLAF - Purdue University

DERNIER METAR :
  • 100954Z AUTO 29010KT 10SM CLR 01/M04 A3000 RMK AO2 SLP162 T00061039 $

METARs EXPIRÉS :
  • 100854Z AUTO 29011KT 10SM CLR 01/M03 A2999 RMK AO2 SLP157 T00111033 53016 $
  • 100754Z AUTO 29009KT 10SM CLR 01/M03 A2997 RMK AO2 SLP151 T00111033 $

TAF KLAF
Valide du 10 à 08h jusqu'au 11 à 06h UTC


100814Z 1008/1106 29011KT P6SM SKC
FM101500 29011G18KT P6SM SKC
FM110100 27006KT P6SM FEW250 AMD LTD TO CLD VIS AND WIND TIL 101300



MET'MAP, la Météo Aéronautique d'un coup d'oeil ! - Copyright ORBIFLY Décembre 2007 - Disclaimer

ORBIFLY MET'MAP TEAM :

Programmation & Développement : Alexandra Zaïnal
Sur une idée originale de : Baudouin d'Aumeries
Assistance à la programmation : Marc-Olivier Méhu
Soutien technique & logistique : Manuel Goepfert

Contact : metmap@orbifly.com




SOURCES & CREDITS :

   NOAA       Earth
Advisory